sensor_id;sensor_type;location;lat;lon;timestamp;P1;durP1;ratioP1;P2;durP2;ratioP2
43835;SDS011;39345;43.964;25.340;2022-11-06T00:00:56;98.25;;;55.58;;
43835;SDS011;39345;43.964;25.340;2022-11-06T00:03:23;92.50;;;52.92;;
43835;SDS011;39345;43.964;25.340;2022-11-06T00:05:51;97.88;;;57.72;;
43835;SDS011;39345;43.964;25.340;2022-11-06T00:08:38;93.90;;;53.97;;
43835;SDS011;39345;43.964;25.340;2022-11-06T00:13:37;97.68;;;55.15;;
43835;SDS011;39345;43.964;25.340;2022-11-06T00:16:05;100.03;;;55.13;;
43835;SDS011;39345;43.964;25.340;2022-11-06T00:18:33;97.50;;;54.97;;
43835;SDS011;39345;43.964;25.340;2022-11-06T00:21:07;96.70;;;54.13;;
43835;SDS011;39345;43.964;25.340;2022-11-06T00:23:35;100.23;;;52.87;;
43835;SDS011;39345;43.964;25.340;2022-11-06T00:26:09;101.45;;;57.00;;
43835;SDS011;39345;43.964;25.340;2022-11-06T00:28:37;97.10;;;58.58;;
43835;SDS011;39345;43.964;25.340;2022-11-06T00:31:05;90.32;;;51.70;;
43835;SDS011;39345;43.964;25.340;2022-11-06T00:33:33;87.60;;;52.58;;
43835;SDS011;39345;43.964;25.340;2022-11-06T00:36:01;98.20;;;54.05;;
43835;SDS011;39345;43.964;25.340;2022-11-06T00:38:29;100.53;;;56.72;;
43835;SDS011;39345;43.964;25.340;2022-11-06T00:41:00;93.22;;;54.78;;
43835;SDS011;39345;43.964;25.340;2022-11-06T00:43:29;101.85;;;57.25;;
43835;SDS011;39345;43.964;25.340;2022-11-06T00:46:00;107.15;;;60.20;;
43835;SDS011;39345;43.964;25.340;2022-11-06T00:48:28;96.38;;;54.10;;
43835;SDS011;39345;43.964;25.340;2022-11-06T00:51:00;102.45;;;63.17;;
43835;SDS011;39345;43.964;25.340;2022-11-06T00:53:28;101.35;;;56.45;;
43835;SDS011;39345;43.964;25.340;2022-11-06T00:56:02;105.05;;;59.38;;
43835;SDS011;39345;43.964;25.340;2022-11-06T00:58:29;110.80;;;61.33;;
43835;SDS011;39345;43.964;25.340;2022-11-06T01:01:04;101.30;;;58.42;;
43835;SDS011;39345;43.964;25.340;2022-11-06T01:03:31;103.72;;;61.35;;
43835;SDS011;39345;43.964;25.340;2022-11-06T01:06:03;104.90;;;59.17;;
43835;SDS011;39345;43.964;25.340;2022-11-06T01:08:30;102.38;;;59.75;;
43835;SDS011;39345;43.964;25.340;2022-11-06T01:10:58;107.03;;;57.67;;
43835;SDS011;39345;43.964;25.340;2022-11-06T01:13:25;106.22;;;62.20;;
43835;SDS011;39345;43.964;25.340;2022-11-06T01:15:53;102.32;;;59.17;;
43835;SDS011;39345;43.964;25.340;2022-11-06T01:18:20;111.05;;;61.35;;
43835;SDS011;39345;43.964;25.340;2022-11-06T01:20:47;108.85;;;63.10;;
43835;SDS011;39345;43.964;25.340;2022-11-06T01:23:15;104.82;;;59.13;;
43835;SDS011;39345;43.964;25.340;2022-11-06T01:25:42;118.35;;;61.42;;
43835;SDS011;39345;43.964;25.340;2022-11-06T01:28:09;105.28;;;61.35;;
43835;SDS011;39345;43.964;25.340;2022-11-06T01:30:37;111.85;;;62.03;;
43835;SDS011;39345;43.964;25.340;2022-11-06T01:33:05;111.68;;;62.28;;
43835;SDS011;39345;43.964;25.340;2022-11-06T01:35:32;116.38;;;63.40;;
43835;SDS011;39345;43.964;25.340;2022-11-06T01:38:00;113.07;;;63.50;;
43835;SDS011;39345;43.964;25.340;2022-11-06T01:40:27;109.00;;;61.08;;
43835;SDS011;39345;43.964;25.340;2022-11-06T01:42:54;117.55;;;65.20;;
43835;SDS011;39345;43.964;25.340;2022-11-06T01:45:23;114.78;;;62.45;;
43835;SDS011;39345;43.964;25.340;2022-11-06T01:47:51;110.18;;;62.38;;
43835;SDS011;39345;43.964;25.340;2022-11-06T01:50:19;114.70;;;63.42;;
43835;SDS011;39345;43.964;25.340;2022-11-06T01:52:47;119.65;;;66.28;;
43835;SDS011;39345;43.964;25.340;2022-11-06T01:55:25;115.90;;;64.97;;
43835;SDS011;39345;43.964;25.340;2022-11-06T01:57:55;116.60;;;62.53;;
43835;SDS011;39345;43.964;25.340;2022-11-06T02:00:23;113.88;;;61.55;;
43835;SDS011;39345;43.964;25.340;2022-11-06T02:02:52;107.47;;;58.70;;
43835;SDS011;39345;43.964;25.340;2022-11-06T02:05:19;110.13;;;64.40;;
43835;SDS011;39345;43.964;25.340;2022-11-06T02:07:47;117.13;;;64.07;;
43835;SDS011;39345;43.964;25.340;2022-11-06T02:10:14;112.97;;;60.03;;
43835;SDS011;39345;43.964;25.340;2022-11-06T02:28:50;119.78;;;64.28;;
43835;SDS011;39345;43.964;25.340;2022-11-06T02:31:22;114.68;;;63.95;;
43835;SDS011;39345;43.964;25.340;2022-11-06T02:33:54;103.57;;;61.25;;
43835;SDS011;39345;43.964;25.340;2022-11-06T02:36:28;109.97;;;63.25;;
43835;SDS011;39345;43.964;25.340;2022-11-06T02:38:57;110.78;;;60.30;;
43835;SDS011;39345;43.964;25.340;2022-11-06T02:41:30;111.22;;;62.88;;
43835;SDS011;39345;43.964;25.340;2022-11-06T02:43:58;107.35;;;60.53;;
43835;SDS011;39345;43.964;25.340;2022-11-06T02:46:31;113.82;;;58.95;;
43835;SDS011;39345;43.964;25.340;2022-11-06T02:49:03;106.53;;;61.22;;
43835;SDS011;39345;43.964;25.340;2022-11-06T02:51:32;113.75;;;64.03;;
43835;SDS011;39345;43.964;25.340;2022-11-06T02:54:02;108.47;;;60.28;;
43835;SDS011;39345;43.964;25.340;2022-11-06T02:56:36;110.80;;;60.83;;
43835;SDS011;39345;43.964;25.340;2022-11-06T02:59:05;108.72;;;61.67;;
43835;SDS011;39345;43.964;25.340;2022-11-06T03:01:37;108.45;;;60.22;;
43835;SDS011;39345;43.964;25.340;2022-11-06T03:04:09;116.90;;;63.22;;
43835;SDS011;39345;43.964;25.340;2022-11-06T03:06:39;117.82;;;63.78;;
43835;SDS011;39345;43.964;25.340;2022-11-06T03:09:09;107.22;;;61.75;;
43835;SDS011;39345;43.964;25.340;2022-11-06T03:11:38;113.72;;;61.03;;
43835;SDS011;39345;43.964;25.340;2022-11-06T03:14:11;115.82;;;62.55;;
43835;SDS011;39345;43.964;25.340;2022-11-06T03:22:08;108.95;;;59.83;;
43835;SDS011;39345;43.964;25.340;2022-11-06T03:27:11;107.97;;;57.00;;
43835;SDS011;39345;43.964;25.340;2022-11-06T03:30:00;108.47;;;56.97;;
43835;SDS011;39345;43.964;25.340;2022-11-06T03:32:39;115.35;;;61.85;;
43835;SDS011;39345;43.964;25.340;2022-11-06T03:35:13;108.03;;;58.55;;
43835;SDS011;39345;43.964;25.340;2022-11-06T03:37:45;112.10;;;59.53;;
43835;SDS011;39345;43.964;25.340;2022-11-06T03:40:14;115.72;;;63.67;;
43835;SDS011;39345;43.964;25.340;2022-11-06T03:42:43;115.68;;;62.63;;
43835;SDS011;39345;43.964;25.340;2022-11-06T03:45:15;116.47;;;65.50;;
43835;SDS011;39345;43.964;25.340;2022-11-06T03:47:55;120.78;;;65.05;;
43835;SDS011;39345;43.964;25.340;2022-11-06T03:50:28;112.70;;;61.65;;
43835;SDS011;39345;43.964;25.340;2022-11-06T03:53:01;111.47;;;61.92;;
43835;SDS011;39345;43.964;25.340;2022-11-06T03:55:31;124.67;;;66.40;;
43835;SDS011;39345;43.964;25.340;2022-11-06T03:58:04;112.90;;;59.60;;
43835;SDS011;39345;43.964;25.340;2022-11-06T04:00:33;112.82;;;59.63;;
43835;SDS011;39345;43.964;25.340;2022-11-06T04:03:04;111.40;;;59.63;;
43835;SDS011;39345;43.964;25.340;2022-11-06T04:05:40;110.63;;;59.67;;
43835;SDS011;39345;43.964;25.340;2022-11-06T04:08:08;112.82;;;58.78;;
43835;SDS011;39345;43.964;25.340;2022-11-06T04:10:56;109.90;;;56.72;;
43835;SDS011;39345;43.964;25.340;2022-11-06T04:13:44;107.53;;;60.50;;
43835;SDS011;39345;43.964;25.340;2022-11-06T04:16:45;107.75;;;57.15;;
43835;SDS011;39345;43.964;25.340;2022-11-06T04:19:14;106.03;;;57.60;;
43835;SDS011;39345;43.964;25.340;2022-11-06T04:27:17;105.68;;;59.97;;
43835;SDS011;39345;43.964;25.340;2022-11-06T04:40:09;101.95;;;57.78;;
43835;SDS011;39345;43.964;25.340;2022-11-06T04:47:51;108.18;;;53.70;;
43835;SDS011;39345;43.964;25.340;2022-11-06T04:50:21;102.75;;;56.15;;
43835;SDS011;39345;43.964;25.340;2022-11-06T04:52:49;111.78;;;59.58;;
43835;SDS011;39345;43.964;25.340;2022-11-06T04:55:17;114.80;;;59.70;;
43835;SDS011;39345;43.964;25.340;2022-11-06T04:57:46;106.80;;;56.63;;
43835;SDS011;39345;43.964;25.340;2022-11-06T05:00:14;100.90;;;56.53;;
43835;SDS011;39345;43.964;25.340;2022-11-06T05:02:42;111.40;;;58.03;;
43835;SDS011;39345;43.964;25.340;2022-11-06T05:05:10;107.78;;;56.53;;
43835;SDS011;39345;43.964;25.340;2022-11-06T05:07:37;104.78;;;53.97;;
43835;SDS011;39345;43.964;25.340;2022-11-06T05:10:04;106.45;;;56.13;;
43835;SDS011;39345;43.964;25.340;2022-11-06T05:12:32;106.93;;;56.60;;
43835;SDS011;39345;43.964;25.340;2022-11-06T05:14:59;101.90;;;54.97;;
43835;SDS011;39345;43.964;25.340;2022-11-06T05:17:27;101.72;;;54.15;;
43835;SDS011;39345;43.964;25.340;2022-11-06T05:20:01;100.55;;;52.08;;
43835;SDS011;39345;43.964;25.340;2022-11-06T05:22:28;99.32;;;52.35;;
43835;SDS011;39345;43.964;25.340;2022-11-06T05:25:14;95.82;;;53.05;;
43835;SDS011;39345;43.964;25.340;2022-11-06T05:27:42;101.30;;;51.88;;
43835;SDS011;39345;43.964;25.340;2022-11-06T05:30:09;97.53;;;52.78;;
43835;SDS011;39345;43.964;25.340;2022-11-06T05:32:37;97.10;;;52.90;;
43835;SDS011;39345;43.964;25.340;2022-11-06T05:35:04;99.38;;;51.55;;
43835;SDS011;39345;43.964;25.340;2022-11-06T05:37:32;96.85;;;51.42;;
43835;SDS011;39345;43.964;25.340;2022-11-06T05:39:59;91.82;;;49.45;;
43835;SDS011;39345;43.964;25.340;2022-11-06T05:42:27;89.18;;;45.13;;
43835;SDS011;39345;43.964;25.340;2022-11-06T05:44:54;84.28;;;48.67;;
43835;SDS011;39345;43.964;25.340;2022-11-06T05:47:22;83.40;;;47.22;;
43835;SDS011;39345;43.964;25.340;2022-11-06T05:49:49;86.72;;;46.22;;
43835;SDS011;39345;43.964;25.340;2022-11-06T05:52:17;89.28;;;48.58;;
43835;SDS011;39345;43.964;25.340;2022-11-06T05:54:44;82.72;;;46.13;;
43835;SDS011;39345;43.964;25.340;2022-11-06T05:57:11;88.13;;;46.60;;
43835;SDS011;39345;43.964;25.340;2022-11-06T05:59:39;82.40;;;45.10;;
43835;SDS011;39345;43.964;25.340;2022-11-06T06:02:07;79.72;;;44.08;;
43835;SDS011;39345;43.964;25.340;2022-11-06T06:04:34;87.25;;;45.10;;
43835;SDS011;39345;43.964;25.340;2022-11-06T06:07:02;80.68;;;46.10;;
43835;SDS011;39345;43.964;25.340;2022-11-06T06:09:29;81.25;;;46.15;;
43835;SDS011;39345;43.964;25.340;2022-11-06T06:11:57;84.25;;;45.63;;
43835;SDS011;39345;43.964;25.340;2022-11-06T06:14:24;76.22;;;44.15;;
43835;SDS011;39345;43.964;25.340;2022-11-06T06:16:51;78.13;;;43.60;;
43835;SDS011;39345;43.964;25.340;2022-11-06T06:19:19;79.63;;;43.50;;
43835;SDS011;39345;43.964;25.340;2022-11-06T06:21:46;78.80;;;41.13;;
43835;SDS011;39345;43.964;25.340;2022-11-06T06:24:15;77.53;;;42.13;;
43835;SDS011;39345;43.964;25.340;2022-11-06T06:26:42;73.65;;;41.03;;
43835;SDS011;39345;43.964;25.340;2022-11-06T06:29:10;65.97;;;39.78;;
43835;SDS011;39345;43.964;25.340;2022-11-06T06:31:37;65.65;;;39.10;;
43835;SDS011;39345;43.964;25.340;2022-11-06T06:34:04;71.07;;;40.38;;
43835;SDS011;39345;43.964;25.340;2022-11-06T06:36:32;67.25;;;39.20;;
43835;SDS011;39345;43.964;25.340;2022-11-06T06:38:59;68.13;;;39.40;;
43835;SDS011;39345;43.964;25.340;2022-11-06T06:41:27;66.90;;;39.85;;
43835;SDS011;39345;43.964;25.340;2022-11-06T06:43:54;65.22;;;38.90;;
43835;SDS011;39345;43.964;25.340;2022-11-06T06:46:21;70.32;;;38.00;;
43835;SDS011;39345;43.964;25.340;2022-11-06T06:48:49;63.13;;;37.10;;
43835;SDS011;39345;43.964;25.340;2022-11-06T06:51:16;61.75;;;37.80;;
43835;SDS011;39345;43.964;25.340;2022-11-06T06:53:49;61.35;;;35.97;;
43835;SDS011;39345;43.964;25.340;2022-11-06T06:56:16;56.03;;;35.90;;
43835;SDS011;39345;43.964;25.340;2022-11-06T06:58:44;63.38;;;35.10;;
43835;SDS011;39345;43.964;25.340;2022-11-06T07:01:11;64.15;;;36.00;;
43835;SDS011;39345;43.964;25.340;2022-11-06T07:03:39;56.78;;;34.00;;
43835;SDS011;39345;43.964;25.340;2022-11-06T07:06:06;51.70;;;29.90;;
43835;SDS011;39345;43.964;25.340;2022-11-06T07:08:34;56.40;;;33.20;;
43835;SDS011;39345;43.964;25.340;2022-11-06T07:11:03;55.13;;;33.58;;
43835;SDS011;39345;43.964;25.340;2022-11-06T07:13:31;49.42;;;33.70;;
43835;SDS011;39345;43.964;25.340;2022-11-06T07:16:05;56.50;;;32.20;;
43835;SDS011;39345;43.964;25.340;2022-11-06T07:18:33;50.70;;;31.92;;
43835;SDS011;39345;43.964;25.340;2022-11-06T07:21:08;54.22;;;32.72;;
43835;SDS011;39345;43.964;25.340;2022-11-06T07:23:35;52.88;;;31.77;;
43835;SDS011;39345;43.964;25.340;2022-11-06T07:26:03;40.00;;;25.92;;
43835;SDS011;39345;43.964;25.340;2022-11-06T07:28:31;46.70;;;28.33;;
43835;SDS011;39345;43.964;25.340;2022-11-06T07:30:59;44.65;;;26.83;;
43835;SDS011;39345;43.964;25.340;2022-11-06T07:33:26;43.97;;;27.00;;
43835;SDS011;39345;43.964;25.340;2022-11-06T07:35:54;46.90;;;28.77;;
43835;SDS011;39345;43.964;25.340;2022-11-06T07:38:21;42.35;;;24.73;;
43835;SDS011;39345;43.964;25.340;2022-11-06T07:40:49;36.72;;;25.30;;
43835;SDS011;39345;43.964;25.340;2022-11-06T07:43:16;41.28;;;23.75;;
43835;SDS011;39345;43.964;25.340;2022-11-06T07:45:44;41.53;;;25.75;;
43835;SDS011;39345;43.964;25.340;2022-11-06T07:48:11;34.33;;;22.77;;
43835;SDS011;39345;43.964;25.340;2022-11-06T07:50:39;39.97;;;21.90;;
43835;SDS011;39345;43.964;25.340;2022-11-06T07:53:06;34.20;;;22.13;;
43835;SDS011;39345;43.964;25.340;2022-11-06T07:55:34;34.58;;;21.30;;
43835;SDS011;39345;43.964;25.340;2022-11-06T07:58:07;33.38;;;20.98;;
43835;SDS011;39345;43.964;25.340;2022-11-06T08:00:34;44.13;;;22.58;;
43835;SDS011;39345;43.964;25.340;2022-11-06T08:03:02;35.25;;;21.02;;
43835;SDS011;39345;43.964;25.340;2022-11-06T08:05:29;34.22;;;20.58;;
43835;SDS011;39345;43.964;25.340;2022-11-06T08:07:57;34.45;;;20.67;;
43835;SDS011;39345;43.964;25.340;2022-11-06T08:10:24;30.30;;;19.27;;
43835;SDS011;39345;43.964;25.340;2022-11-06T08:12:52;31.35;;;19.05;;
43835;SDS011;39345;43.964;25.340;2022-11-06T08:15:19;28.35;;;19.50;;
43835;SDS011;39345;43.964;25.340;2022-11-06T08:17:47;31.63;;;19.65;;
43835;SDS011;39345;43.964;25.340;2022-11-06T08:20:14;30.00;;;18.55;;
43835;SDS011;39345;43.964;25.340;2022-11-06T08:22:42;30.48;;;17.40;;
43835;SDS011;39345;43.964;25.340;2022-11-06T08:25:09;30.25;;;18.27;;
43835;SDS011;39345;43.964;25.340;2022-11-06T08:27:37;26.98;;;18.02;;
43835;SDS011;39345;43.964;25.340;2022-11-06T08:30:04;28.38;;;15.90;;
43835;SDS011;39345;43.964;25.340;2022-11-06T08:32:32;29.65;;;17.95;;
43835;SDS011;39345;43.964;25.340;2022-11-06T08:34:59;26.70;;;17.52;;
43835;SDS011;39345;43.964;25.340;2022-11-06T08:37:26;26.25;;;15.52;;
43835;SDS011;39345;43.964;25.340;2022-11-06T08:39:54;26.50;;;15.68;;
43835;SDS011;39345;43.964;25.340;2022-11-06T08:42:22;26.33;;;15.30;;
43835;SDS011;39345;43.964;25.340;2022-11-06T08:44:50;30.58;;;17.38;;
43835;SDS011;39345;43.964;25.340;2022-11-06T08:47:17;31.05;;;17.13;;
43835;SDS011;39345;43.964;25.340;2022-11-06T08:49:45;30.02;;;15.73;;
43835;SDS011;39345;43.964;25.340;2022-11-06T08:52:12;25.52;;;16.13;;
43835;SDS011;39345;43.964;25.340;2022-11-06T08:54:40;25.73;;;15.80;;
43835;SDS011;39345;43.964;25.340;2022-11-06T08:57:07;29.33;;;14.55;;
43835;SDS011;39345;43.964;25.340;2022-11-06T08:59:35;22.70;;;14.40;;
43835;SDS011;39345;43.964;25.340;2022-11-06T09:02:02;26.70;;;15.10;;
43835;SDS011;39345;43.964;25.340;2022-11-06T09:04:30;31.25;;;14.90;;
43835;SDS011;39345;43.964;25.340;2022-11-06T09:07:04;26.90;;;15.53;;
43835;SDS011;39345;43.964;25.340;2022-11-06T09:09:31;27.63;;;16.73;;
43835;SDS011;39345;43.964;25.340;2022-11-06T09:11:59;29.20;;;16.08;;
43835;SDS011;39345;43.964;25.340;2022-11-06T09:14:27;29.20;;;16.02;;
43835;SDS011;39345;43.964;25.340;2022-11-06T09:16:54;25.80;;;14.02;;
43835;SDS011;39345;43.964;25.340;2022-11-06T09:19:21;28.63;;;14.43;;
43835;SDS011;39345;43.964;25.340;2022-11-06T09:21:49;21.35;;;13.98;;
43835;SDS011;39345;43.964;25.340;2022-11-06T09:24:20;21.92;;;13.57;;
43835;SDS011;39345;43.964;25.340;2022-11-06T09:27:08;25.00;;;15.32;;
43835;SDS011;39345;43.964;25.340;2022-11-06T09:29:35;22.67;;;14.05;;
43835;SDS011;39345;43.964;25.340;2022-11-06T09:32:06;20.52;;;12.65;;
43835;SDS011;39345;43.964;25.340;2022-11-06T09:34:33;23.48;;;13.32;;
43835;SDS011;39345;43.964;25.340;2022-11-06T09:37:01;24.30;;;14.20;;
43835;SDS011;39345;43.964;25.340;2022-11-06T09:39:29;22.90;;;13.00;;
43835;SDS011;39345;43.964;25.340;2022-11-06T09:42:00;20.05;;;12.95;;
43835;SDS011;39345;43.964;25.340;2022-11-06T09:47:03;22.75;;;11.40;;
43835;SDS011;39345;43.964;25.340;2022-11-06T09:49:36;20.50;;;12.60;;
43835;SDS011;39345;43.964;25.340;2022-11-06T09:52:07;24.27;;;12.70;;
43835;SDS011;39345;43.964;25.340;2022-11-06T09:54:53;19.05;;;11.77;;
43835;SDS011;39345;43.964;25.340;2022-11-06T09:57:28;23.13;;;11.85;;
43835;SDS011;39345;43.964;25.340;2022-11-06T09:59:59;23.52;;;12.02;;
43835;SDS011;39345;43.964;25.340;2022-11-06T10:05:42;20.42;;;11.88;;
43835;SDS011;39345;43.964;25.340;2022-11-06T10:07:45;21.58;;;12.80;;
43835;SDS011;39345;43.964;25.340;2022-11-06T10:10:14;23.20;;;12.25;;
43835;SDS011;39345;43.964;25.340;2022-11-06T10:15:32;17.55;;;11.27;;
43835;SDS011;39345;43.964;25.340;2022-11-06T10:20:52;22.70;;;11.30;;
43835;SDS011;39345;43.964;25.340;2022-11-06T10:23:26;27.10;;;12.95;;
43835;SDS011;39345;43.964;25.340;2022-11-06T10:26:09;17.77;;;10.93;;
43835;SDS011;39345;43.964;25.340;2022-11-06T10:28:52;22.92;;;13.85;;
43835;SDS011;39345;43.964;25.340;2022-11-06T10:33:52;26.08;;;12.15;;
43835;SDS011;39345;43.964;25.340;2022-11-06T10:36:22;30.75;;;15.38;;
43835;SDS011;39345;43.964;25.340;2022-11-06T10:38:51;24.35;;;15.07;;
43835;SDS011;39345;43.964;25.340;2022-11-06T10:41:21;30.95;;;17.58;;
43835;SDS011;39345;43.964;25.340;2022-11-06T10:46:28;29.10;;;16.10;;
43835;SDS011;39345;43.964;25.340;2022-11-06T10:48:57;23.90;;;16.10;;
43835;SDS011;39345;43.964;25.340;2022-11-06T10:59:21;23.73;;;13.68;;
43835;SDS011;39345;43.964;25.340;2022-11-06T11:01:48;21.08;;;11.73;;
43835;SDS011;39345;43.964;25.340;2022-11-06T11:04:16;19.38;;;12.07;;
43835;SDS011;39345;43.964;25.340;2022-11-06T11:06:43;18.90;;;11.65;;
43835;SDS011;39345;43.964;25.340;2022-11-06T11:09:32;20.33;;;11.68;;
43835;SDS011;39345;43.964;25.340;2022-11-06T11:11:58;19.25;;;11.75;;
43835;SDS011;39345;43.964;25.340;2022-11-06T11:14:30;21.20;;;12.63;;
43835;SDS011;39345;43.964;25.340;2022-11-06T11:16:58;20.45;;;11.50;;
43835;SDS011;39345;43.964;25.340;2022-11-06T11:22:03;19.98;;;11.35;;
43835;SDS011;39345;43.964;25.340;2022-11-06T11:24:31;20.90;;;10.88;;
43835;SDS011;39345;43.964;25.340;2022-11-06T11:26:59;23.10;;;12.05;;
43835;SDS011;39345;43.964;25.340;2022-11-06T11:31:56;22.55;;;13.57;;
43835;SDS011;39345;43.964;25.340;2022-11-06T11:34:29;23.65;;;15.00;;
43835;SDS011;39345;43.964;25.340;2022-11-06T11:37:01;30.20;;;15.93;;
43835;SDS011;39345;43.964;25.340;2022-11-06T11:39:33;23.40;;;12.15;;
43835;SDS011;39345;43.964;25.340;2022-11-06T11:44:48;18.85;;;11.13;;
43835;SDS011;39345;43.964;25.340;2022-11-06T11:47:32;20.10;;;10.68;;
43835;SDS011;39345;43.964;25.340;2022-11-06T11:52:46;18.10;;;9.88;;
43835;SDS011;39345;43.964;25.340;2022-11-06T11:55:14;17.67;;;10.68;;
43835;SDS011;39345;43.964;25.340;2022-11-06T11:57:43;20.40;;;11.45;;
43835;SDS011;39345;43.964;25.340;2022-11-06T12:00:17;18.80;;;10.52;;
43835;SDS011;39345;43.964;25.340;2022-11-06T12:02:46;17.20;;;9.93;;
43835;SDS011;39345;43.964;25.340;2022-11-06T12:05:20;25.33;;;11.60;;
43835;SDS011;39345;43.964;25.340;2022-11-06T12:07:51;18.38;;;9.55;;
43835;SDS011;39345;43.964;25.340;2022-11-06T12:12:56;22.67;;;9.90;;
43835;SDS011;39345;43.964;25.340;2022-11-06T12:17:52;17.85;;;10.15;;
43835;SDS011;39345;43.964;25.340;2022-11-06T12:20:23;20.15;;;10.38;;
43835;SDS011;39345;43.964;25.340;2022-11-06T12:22:52;21.98;;;9.52;;
43835;SDS011;39345;43.964;25.340;2022-11-06T12:25:28;18.67;;;9.13;;
43835;SDS011;39345;43.964;25.340;2022-11-06T12:27:58;18.67;;;10.40;;
43835;SDS011;39345;43.964;25.340;2022-11-06T12:30:26;17.80;;;9.63;;
43835;SDS011;39345;43.964;25.340;2022-11-06T12:33:09;18.45;;;9.38;;
43835;SDS011;39345;43.964;25.340;2022-11-06T12:35:41;23.65;;;9.32;;
43835;SDS011;39345;43.964;25.340;2022-11-06T12:41:05;18.98;;;9.35;;
43835;SDS011;39345;43.964;25.340;2022-11-06T12:43:37;18.60;;;9.32;;
43835;SDS011;39345;43.964;25.340;2022-11-06T13:01:19;22.58;;;9.90;;
43835;SDS011;39345;43.964;25.340;2022-11-06T13:06:27;19.65;;;9.52;;
43835;SDS011;39345;43.964;25.340;2022-11-06T13:09:59;18.83;;;8.98;;
43835;SDS011;39345;43.964;25.340;2022-11-06T13:11:55;21.35;;;9.45;;
43835;SDS011;39345;43.964;25.340;2022-11-06T13:14:26;20.58;;;9.50;;
43835;SDS011;39345;43.964;25.340;2022-11-06T13:22:09;17.17;;;9.13;;
43835;SDS011;39345;43.964;25.340;2022-11-06T13:29:38;17.95;;;10.00;;
43835;SDS011;39345;43.964;25.340;2022-11-06T13:32:10;18.33;;;10.52;;
43835;SDS011;39345;43.964;25.340;2022-11-06T13:34:40;20.35;;;11.18;;
43835;SDS011;39345;43.964;25.340;2022-11-06T13:37:16;18.70;;;10.25;;
43835;SDS011;39345;43.964;25.340;2022-11-06T13:39:47;20.17;;;10.25;;
43835;SDS011;39345;43.964;25.340;2022-11-06T13:42:20;21.83;;;11.50;;
43835;SDS011;39345;43.964;25.340;2022-11-06T13:44:49;19.65;;;11.15;;
43835;SDS011;39345;43.964;25.340;2022-11-06T13:47:19;20.38;;;10.38;;
43835;SDS011;39345;43.964;25.340;2022-11-06T14:02:37;18.35;;;10.25;;
43835;SDS011;39345;43.964;25.340;2022-11-06T14:07:53;17.30;;;9.95;;
43835;SDS011;39345;43.964;25.340;2022-11-06T14:10:22;21.95;;;10.43;;
43835;SDS011;39345;43.964;25.340;2022-11-06T14:12:51;26.55;;;11.75;;
43835;SDS011;39345;43.964;25.340;2022-11-06T14:17:53;18.25;;;9.98;;
43835;SDS011;39345;43.964;25.340;2022-11-06T14:20:28;22.02;;;10.80;;
43835;SDS011;39345;43.964;25.340;2022-11-06T14:23:35;23.00;;;10.98;;
43835;SDS011;39345;43.964;25.340;2022-11-06T14:25:44;25.75;;;10.88;;
43835;SDS011;39345;43.964;25.340;2022-11-06T14:28:12;18.08;;;11.25;;
43835;SDS011;39345;43.964;25.340;2022-11-06T14:30:54;18.80;;;10.15;;
43835;SDS011;39345;43.964;25.340;2022-11-06T14:38:51;18.55;;;9.90;;
43835;SDS011;39345;43.964;25.340;2022-11-06T14:46:32;16.85;;;10.65;;
43835;SDS011;39345;43.964;25.340;2022-11-06T14:49:06;17.63;;;9.88;;
43835;SDS011;39345;43.964;25.340;2022-11-06T14:51:35;21.98;;;10.70;;
43835;SDS011;39345;43.964;25.340;2022-11-06T14:54:04;18.50;;;11.05;;
43835;SDS011;39345;43.964;25.340;2022-11-06T14:56:42;23.33;;;10.75;;
43835;SDS011;39345;43.964;25.340;2022-11-06T14:59:17;20.05;;;10.63;;
43835;SDS011;39345;43.964;25.340;2022-11-06T15:01:53;20.80;;;10.82;;
43835;SDS011;39345;43.964;25.340;2022-11-06T15:04:28;22.05;;;11.70;;
43835;SDS011;39345;43.964;25.340;2022-11-06T15:07:05;20.98;;;11.48;;
43835;SDS011;39345;43.964;25.340;2022-11-06T15:09:54;19.95;;;12.30;;
43835;SDS011;39345;43.964;25.340;2022-11-06T15:12:29;23.20;;;12.15;;
43835;SDS011;39345;43.964;25.340;2022-11-06T15:15:14;27.05;;;12.52;;
43835;SDS011;39345;43.964;25.340;2022-11-06T15:17:43;20.20;;;11.48;;
43835;SDS011;39345;43.964;25.340;2022-11-06T15:20:14;21.48;;;12.45;;
43835;SDS011;39345;43.964;25.340;2022-11-06T15:22:48;25.45;;;12.80;;
43835;SDS011;39345;43.964;25.340;2022-11-06T15:25:19;20.42;;;12.43;;
43835;SDS011;39345;43.964;25.340;2022-11-06T15:28:32;20.83;;;13.48;;
43835;SDS011;39345;43.964;25.340;2022-11-06T15:30:49;26.42;;;12.80;;
43835;SDS011;39345;43.964;25.340;2022-11-06T15:33:21;23.90;;;13.32;;
43835;SDS011;39345;43.964;25.340;2022-11-06T15:35:51;21.83;;;12.90;;
43835;SDS011;39345;43.964;25.340;2022-11-06T15:38:20;20.73;;;12.82;;
43835;SDS011;39345;43.964;25.340;2022-11-06T15:40:50;20.80;;;12.48;;
43835;SDS011;39345;43.964;25.340;2022-11-06T15:43:23;18.67;;;12.13;;
43835;SDS011;39345;43.964;25.340;2022-11-06T15:53:50;25.05;;;14.15;;
43835;SDS011;39345;43.964;25.340;2022-11-06T15:56:19;25.63;;;17.25;;
43835;SDS011;39345;43.964;25.340;2022-11-06T15:59:03;24.38;;;13.45;;
43835;SDS011;39345;43.964;25.340;2022-11-06T16:01:31;28.42;;;15.07;;
43835;SDS011;39345;43.964;25.340;2022-11-06T16:04:01;27.50;;;14.88;;
43835;SDS011;39345;43.964;25.340;2022-11-06T16:06:29;25.30;;;13.65;;
43835;SDS011;39345;43.964;25.340;2022-11-06T16:08:57;18.80;;;12.98;;
43835;SDS011;39345;43.964;25.340;2022-11-06T16:11:25;23.88;;;13.50;;
43835;SDS011;39345;43.964;25.340;2022-11-06T16:13:53;26.92;;;14.30;;
43835;SDS011;39345;43.964;25.340;2022-11-06T16:16:31;27.90;;;13.23;;
43835;SDS011;39345;43.964;25.340;2022-11-06T16:18:59;20.60;;;12.48;;
43835;SDS011;39345;43.964;25.340;2022-11-06T16:21:29;24.58;;;13.15;;
43835;SDS011;39345;43.964;25.340;2022-11-06T16:23:58;24.52;;;12.93;;
43835;SDS011;39345;43.964;25.340;2022-11-06T16:26:27;25.13;;;13.55;;
43835;SDS011;39345;43.964;25.340;2022-11-06T16:29:06;22.35;;;14.15;;
43835;SDS011;39345;43.964;25.340;2022-11-06T16:31:34;21.25;;;11.88;;
43835;SDS011;39345;43.964;25.340;2022-11-06T16:34:03;23.08;;;12.68;;
43835;SDS011;39345;43.964;25.340;2022-11-06T16:36:47;26.48;;;13.27;;
43835;SDS011;39345;43.964;25.340;2022-11-06T16:49:36;23.70;;;14.25;;
43835;SDS011;39345;43.964;25.340;2022-11-06T16:54:48;20.42;;;12.20;;
43835;SDS011;39345;43.964;25.340;2022-11-06T16:57:17;19.60;;;13.00;;
43835;SDS011;39345;43.964;25.340;2022-11-06T16:59:55;16.75;;;12.05;;
43835;SDS011;39345;43.964;25.340;2022-11-06T17:02:24;23.00;;;13.45;;
43835;SDS011;39345;43.964;25.340;2022-11-06T17:05:04;21.65;;;12.65;;
43835;SDS011;39345;43.964;25.340;2022-11-06T17:07:32;17.48;;;11.45;;
43835;SDS011;39345;43.964;25.340;2022-11-06T17:12:46;17.63;;;12.35;;
43835;SDS011;39345;43.964;25.340;2022-11-06T17:15:13;26.38;;;14.52;;